createdAt,value
2023-04-08T00:00:04.477Z,5.21
2023-04-08T00:02:39.208Z,5.13
2023-04-08T00:05:09.036Z,5.11
2023-04-08T00:07:37.960Z,5.10
2023-04-08T00:10:08.076Z,5.11
2023-04-08T00:12:36.949Z,5.08
2023-04-08T00:15:08.580Z,5.06
2023-04-08T00:17:37.448Z,5.00
2023-04-08T00:20:07.144Z,4.94
2023-04-08T00:22:35.939Z,4.87
2023-04-08T00:25:07.106Z,4.84
2023-04-08T00:27:36.341Z,4.82
2023-04-08T00:30:07.793Z,4.85
2023-04-08T00:32:36.696Z,4.87
2023-04-08T00:35:05.982Z,4.84
2023-04-08T00:37:35.208Z,4.84
2023-04-08T00:40:04.746Z,4.81
2023-04-08T00:42:33.607Z,4.84
2023-04-08T00:45:02.355Z,4.86
2023-04-08T00:47:33.210Z,4.81
2023-04-08T00:50:02.125Z,4.86
2023-04-08T00:52:31.089Z,4.80
2023-04-08T00:54:59.970Z,4.76
2023-04-08T00:57:28.873Z,4.70
2023-04-08T00:59:57.678Z,4.65
2023-04-08T01:02:32.534Z,4.67
2023-04-08T01:05:06.895Z,4.69
2023-04-08T01:07:38.796Z,4.77
2023-04-08T01:10:17.013Z,4.74
2023-04-08T01:12:51.979Z,4.75
2023-04-08T01:15:21.851Z,4.67
2023-04-08T01:17:55.164Z,4.68
2023-04-08T01:20:26.739Z,4.71
2023-04-08T01:23:09.508Z,4.71
2023-04-08T01:25:40.918Z,4.64
2023-04-08T01:28:14.902Z,4.60
2023-04-08T01:30:45.842Z,4.60
2023-04-08T01:33:18.282Z,4.60
2023-04-08T01:35:48.224Z,4.59
2023-04-08T01:38:19.828Z,4.62
2023-04-08T01:40:52.317Z,4.65
2023-04-08T01:43:23.299Z,4.64
2023-04-08T01:45:58.831Z,4.68
2023-04-08T01:48:29.246Z,4.73
2023-04-08T01:50:59.706Z,4.72
2023-04-08T01:53:28.595Z,4.77
2023-04-08T01:56:03.400Z,4.79
2023-04-08T01:58:40.728Z,4.85
2023-04-08T02:01:13.688Z,4.87
2023-04-08T02:03:46.060Z,4.91
2023-04-08T02:06:16.191Z,4.87
2023-04-08T02:08:47.244Z,4.85
2023-04-08T02:11:16.210Z,4.92
2023-04-08T02:13:46.417Z,4.95
2023-04-08T02:16:23.920Z,4.94
2023-04-08T02:18:58.482Z,4.96
2023-04-08T02:21:34.477Z,5.00
2023-04-08T02:24:09.859Z,5.03
2023-04-08T02:26:40.236Z,5.09
2023-04-08T02:29:14.724Z,5.01
2023-04-08T02:31:44.910Z,4.95
2023-04-08T02:34:17.574Z,4.97
2023-04-08T02:36:47.593Z,4.90
2023-04-08T02:39:16.481Z,4.83
2023-04-08T02:41:45.268Z,4.81
2023-04-08T02:44:15.573Z,4.90
2023-04-08T02:46:44.317Z,4.97
2023-04-08T02:49:13.153Z,4.98
2023-04-08T02:51:41.948Z,4.97
2023-04-08T02:54:10.752Z,4.92
2023-04-08T02:56:39.519Z,4.91
2023-04-08T02:59:08.287Z,4.91
2023-04-08T03:01:38.695Z,4.87
2023-04-08T03:04:07.574Z,4.91
2023-04-08T03:06:36.374Z,4.89
2023-04-08T03:09:06.264Z,4.86
2023-04-08T03:11:35.036Z,4.89
2023-04-08T03:14:03.783Z,4.84
2023-04-08T03:16:32.646Z,4.82
2023-04-08T03:19:02.951Z,4.83
2023-04-08T03:21:32.481Z,4.83
2023-04-08T03:24:01.238Z,4.82
2023-04-08T03:26:30.077Z,4.81
2023-04-08T03:28:58.912Z,4.85
2023-04-08T03:31:28.020Z,4.82
2023-04-08T03:33:56.866Z,4.78
2023-04-08T03:36:27.132Z,4.80
2023-04-08T03:38:55.970Z,4.83
2023-04-08T03:41:24.824Z,4.86
2023-04-08T03:43:53.614Z,4.86
2023-04-08T03:46:22.836Z,4.69
2023-04-08T03:48:51.853Z,4.77
2023-04-08T03:51:20.755Z,4.80
2023-04-08T03:53:51.386Z,4.80
2023-04-08T03:56:20.881Z,4.77
2023-04-08T03:58:49.790Z,4.69
2023-04-08T04:01:18.740Z,4.68
2023-04-08T04:03:47.573Z,4.67
2023-04-08T04:06:16.562Z,4.65
2023-04-08T04:08:45.323Z,4.67
2023-04-08T04:11:15.514Z,4.73
2023-04-08T04:13:44.362Z,4.75
2023-04-08T04:16:13.257Z,4.69
2023-04-08T04:18:42.504Z,4.67
2023-04-08T04:21:11.278Z,4.69
2023-04-08T04:23:40.199Z,4.79
2023-04-08T04:26:11.122Z,4.85
2023-04-08T04:28:41.761Z,4.83
2023-04-08T04:31:19.473Z,4.83
2023-04-08T04:33:48.701Z,4.85
2023-04-08T04:36:17.548Z,4.89
2023-04-08T04:38:47.658Z,4.92
2023-04-08T04:41:17.833Z,4.98
2023-04-08T04:43:48.022Z,5.02
2023-04-08T04:46:16.964Z,5.04
2023-04-08T04:48:45.729Z,5.02
2023-04-08T04:51:14.513Z,5.02
2023-04-08T04:53:43.187Z,5.02
2023-04-08T04:56:12.771Z,5.00
2023-04-08T04:58:42.453Z,5.01
2023-04-08T05:01:12.486Z,4.99
2023-04-08T05:03:41.405Z,4.94
2023-04-08T05:06:10.205Z,4.94
2023-04-08T05:08:39.143Z,4.99
2023-04-08T05:11:11.100Z,4.96
2023-04-08T05:13:39.972Z,4.95
2023-04-08T05:16:09.175Z,5.00
2023-04-08T05:18:39.635Z,4.98
2023-04-08T05:21:08.671Z,4.99
2023-04-08T05:23:37.416Z,4.98
2023-04-08T05:26:09.314Z,4.97
2023-04-08T05:28:37.990Z,4.91
2023-04-08T05:31:06.648Z,4.87
2023-04-08T05:33:35.876Z,4.86
2023-04-08T05:36:06.656Z,4.83
2023-04-08T05:38:35.978Z,4.79
2023-04-08T05:41:04.626Z,4.79
2023-04-08T05:43:34.711Z,4.83
2023-04-08T05:46:08.304Z,4.84
2023-04-08T05:48:37.730Z,4.75
2023-04-08T05:51:08.040Z,4.86
2023-04-08T05:53:37.182Z,4.88
2023-04-08T05:56:06.365Z,4.91
2023-04-08T05:58:35.172Z,4.92
2023-04-08T06:01:03.943Z,4.92
2023-04-08T06:03:32.867Z,4.93
2023-04-08T06:06:01.534Z,4.91
2023-04-08T06:08:31.860Z,4.93
2023-04-08T06:11:00.562Z,4.95
2023-04-08T06:13:29.749Z,4.95
2023-04-08T06:15:58.434Z,5.04
2023-04-08T06:18:27.240Z,5.07
2023-04-08T06:20:55.960Z,5.06
2023-04-08T06:23:25.014Z,5.05
2023-04-08T06:25:56.847Z,5.10
2023-04-08T06:28:25.887Z,5.12
2023-04-08T06:30:54.560Z,5.14
2023-04-08T06:33:23.247Z,5.14
2023-04-08T06:35:52.304Z,5.12
2023-04-08T06:38:21.010Z,5.14
2023-04-08T06:40:49.669Z,5.14
2023-04-08T06:43:19.926Z,5.15
2023-04-08T06:45:48.646Z,5.14
2023-04-08T06:48:17.301Z,5.14
2023-04-08T06:50:46.100Z,5.17
2023-04-08T06:53:14.798Z,5.20
2023-04-08T06:55:43.655Z,5.28
2023-04-08T06:58:12.240Z,5.33
2023-04-08T07:00:43.866Z,5.34
2023-04-08T07:03:13.199Z,5.33
2023-04-08T07:05:42.284Z,5.30
2023-04-08T07:08:11.100Z,5.25
2023-04-08T07:10:39.809Z,5.24
2023-04-08T07:13:08.631Z,5.24
2023-04-08T07:15:37.302Z,5.25
2023-04-08T07:18:07.569Z,5.31
2023-04-08T07:20:38.613Z,5.33
2023-04-08T07:23:07.485Z,5.36
2023-04-08T07:25:36.382Z,5.38
2023-04-08T07:28:05.499Z,5.42
2023-04-08T07:30:34.195Z,5.50
2023-04-08T07:33:03.058Z,5.55
2023-04-08T07:35:33.440Z,5.58
2023-04-08T07:38:02.262Z,5.58
2023-04-08T07:40:31.472Z,5.55
2023-04-08T07:43:00.204Z,5.56
2023-04-08T07:45:28.872Z,5.62
2023-04-08T07:47:58.077Z,5.71
2023-04-08T07:50:26.907Z,5.74
2023-04-08T07:52:57.161Z,5.79
2023-04-08T07:55:26.164Z,5.78
2023-04-08T07:57:54.985Z,5.81
2023-04-08T08:00:24.624Z,5.90
2023-04-08T08:02:53.468Z,5.94
2023-04-08T08:05:22.609Z,5.94
2023-04-08T08:07:51.735Z,5.94
2023-04-08T08:10:21.871Z,5.98
2023-04-08T08:12:50.631Z,5.96
2023-04-08T08:15:19.446Z,6.09
2023-04-08T08:17:48.223Z,6.21
2023-04-08T08:20:16.973Z,6.26
2023-04-08T08:22:56.822Z,6.33
2023-04-08T08:25:28.528Z,6.41
2023-04-08T08:27:57.579Z,6.38
2023-04-08T08:30:26.661Z,6.38
2023-04-08T08:32:56.776Z,6.41
2023-04-08T08:35:25.658Z,6.39
2023-04-08T08:37:54.421Z,6.49
2023-04-08T08:40:23.547Z,6.58
2023-04-08T08:42:54.137Z,6.72
2023-04-08T08:45:22.925Z,6.73
2023-04-08T08:47:53.003Z,6.78
2023-04-08T08:50:21.901Z,6.81
2023-04-08T08:52:51.352Z,6.85
2023-04-08T08:55:36.360Z,6.91
2023-04-08T08:58:11.024Z,6.95
2023-04-08T09:00:41.070Z,6.97
2023-04-08T09:03:20.841Z,7.04
2023-04-08T09:05:53.979Z,7.02
2023-04-08T09:08:27.406Z,6.92
2023-04-08T09:10:56.754Z,6.98
2023-04-08T09:13:26.866Z,7.09
2023-04-08T09:16:06.319Z,6.98
2023-04-08T09:18:35.866Z,7.00
2023-04-08T09:21:06.123Z,7.08
2023-04-08T09:23:45.946Z,7.02
2023-04-08T09:26:16.469Z,7.06
2023-04-08T09:29:05.823Z,7.11
2023-04-08T09:31:41.773Z,7.20
2023-04-08T09:34:13.441Z,7.36
2023-04-08T09:36:44.719Z,7.32
2023-04-08T09:39:13.297Z,7.24
2023-04-08T09:41:42.867Z,7.36
2023-04-08T09:44:13.645Z,7.43
2023-04-08T09:46:52.994Z,7.34
2023-04-08T09:49:28.709Z,7.29
2023-04-08T09:52:08.326Z,7.23
2023-04-08T09:54:45.733Z,7.17
2023-04-08T09:57:19.021Z,7.26
2023-04-08T09:59:59.605Z,7.30
2023-04-08T10:02:35.086Z,7.33
2023-04-08T10:05:08.415Z,7.44
2023-04-08T10:07:37.676Z,7.57
2023-04-08T10:10:07.877Z,7.56
2023-04-08T10:12:37.988Z,7.50
2023-04-08T10:15:26.197Z,7.66
2023-04-08T10:17:55.653Z,7.79
2023-04-08T10:20:42.930Z,7.91
2023-04-08T10:23:13.574Z,7.94
2023-04-08T10:25:43.075Z,7.97
2023-04-08T10:28:26.707Z,8.06
2023-04-08T10:30:58.325Z,8.13
2023-04-08T10:33:38.435Z,8.20
2023-04-08T10:36:15.575Z,8.32
2023-04-08T10:38:44.494Z,8.45
2023-04-08T10:41:14.560Z,8.51
2023-04-08T10:43:43.604Z,8.58
2023-04-08T10:46:13.754Z,8.62
2023-04-08T10:48:42.751Z,8.60
2023-04-08T10:51:12.462Z,8.61
2023-04-08T10:53:41.051Z,8.49
2023-04-08T10:56:13.676Z,8.51
2023-04-08T10:58:50.731Z,8.54
2023-04-08T11:01:21.551Z,8.54
2023-04-08T11:03:51.152Z,8.56
2023-04-08T11:06:20.948Z,8.35
2023-04-08T11:08:49.704Z,8.38
2023-04-08T11:11:21.748Z,8.44
2023-04-08T11:13:53.739Z,8.44
2023-04-08T11:16:26.410Z,8.46
2023-04-08T11:18:55.733Z,8.33
2023-04-08T11:21:29.931Z,8.30
2023-04-08T11:23:59.147Z,8.26
2023-04-08T11:26:29.000Z,8.26
2023-04-08T11:28:58.776Z,8.21
2023-04-08T11:31:35.766Z,8.15
2023-04-08T11:34:04.563Z,8.21
2023-04-08T11:36:35.482Z,8.18
2023-04-08T11:39:09.582Z,8.13
2023-04-08T11:41:40.769Z,8.05
2023-04-08T11:44:09.786Z,7.94
2023-04-08T11:46:41.653Z,7.88
2023-04-08T11:49:12.205Z,7.83
2023-04-08T11:51:58.398Z,7.81
2023-04-08T11:54:30.233Z,7.81
2023-04-08T11:56:59.655Z,7.85
2023-04-08T11:59:29.577Z,7.85
2023-04-08T12:02:00.441Z,7.84
2023-04-08T12:04:30.399Z,7.83
2023-04-08T12:06:59.387Z,7.86
2023-04-08T12:09:28.509Z,7.87
2023-04-08T12:11:57.733Z,7.89
2023-04-08T12:14:28.418Z,7.94
2023-04-08T12:16:57.647Z,7.86
2023-04-08T12:19:27.875Z,7.80
2023-04-08T12:21:56.556Z,7.81
2023-04-08T12:24:25.345Z,7.81
2023-04-08T12:26:54.195Z,7.81
2023-04-08T12:29:22.877Z,7.78
2023-04-08T12:31:51.896Z,7.80
2023-04-08T12:34:20.955Z,7.78
2023-04-08T12:36:51.257Z,7.85
2023-04-08T12:39:20.081Z,7.79
2023-04-08T12:41:48.930Z,7.85
2023-04-08T12:44:17.591Z,7.90
2023-04-08T12:46:47.503Z,7.96
2023-04-08T12:49:16.395Z,7.94
2023-04-08T12:51:45.059Z,7.98
2023-04-08T12:54:15.272Z,7.97
2023-04-08T12:56:44.625Z,7.98
2023-04-08T12:59:13.480Z,7.94
2023-04-08T13:01:42.313Z,7.93
2023-04-08T13:04:11.235Z,7.83
2023-04-08T13:06:40.029Z,7.77
2023-04-08T13:09:08.778Z,7.80
2023-04-08T13:11:39.034Z,7.82
2023-04-08T13:14:07.932Z,7.81
2023-04-08T13:16:37.456Z,7.80
2023-04-08T13:19:06.763Z,7.86
2023-04-08T13:21:35.354Z,7.96
2023-04-08T13:24:06.439Z,8.07
2023-04-08T13:26:34.818Z,8.17
2023-04-08T13:29:05.193Z,8.23
2023-04-08T13:31:34.324Z,8.23
2023-04-08T13:34:03.558Z,8.22
2023-04-08T13:36:32.794Z,8.25
2023-04-08T13:39:01.538Z,8.21
2023-04-08T13:41:30.322Z,8.22
2023-04-08T13:43:59.191Z,8.16
2023-04-08T13:46:29.401Z,8.20
2023-04-08T13:48:58.276Z,8.11
2023-04-08T13:51:27.523Z,8.10
2023-04-08T13:53:56.448Z,8.05
2023-04-08T13:56:25.096Z,8.07
2023-04-08T13:58:57.569Z,8.07
2023-04-08T14:01:26.801Z,8.04
2023-04-08T14:03:56.958Z,8.03
2023-04-08T14:06:26.857Z,7.98
2023-04-08T14:08:55.257Z,7.91
2023-04-08T14:11:26.312Z,7.89
2023-04-08T14:13:55.054Z,7.86
2023-04-08T14:16:23.774Z,7.86
2023-04-08T14:18:52.726Z,7.82
2023-04-08T14:21:23.107Z,7.81
2023-04-08T14:23:52.857Z,7.85
2023-04-08T14:26:21.433Z,7.81
2023-04-08T14:28:50.469Z,7.83
2023-04-08T14:31:19.672Z,7.84
2023-04-08T14:33:48.405Z,7.88
2023-04-08T14:36:19.384Z,7.91
2023-04-08T14:38:49.742Z,7.99
2023-04-08T14:41:19.174Z,8.05
2023-04-08T14:43:47.887Z,8.01
2023-04-08T14:46:19.688Z,8.01
2023-04-08T14:48:48.631Z,7.99
2023-04-08T14:51:17.368Z,8.05
2023-04-08T14:53:46.253Z,8.11
2023-04-08T14:56:16.809Z,8.10
2023-04-08T14:58:45.721Z,8.08
2023-04-08T15:01:14.454Z,8.08
2023-04-08T15:03:43.447Z,8.09
2023-04-08T15:06:17.293Z,8.09
2023-04-08T15:08:46.083Z,8.10
2023-04-08T15:11:16.339Z,8.09
2023-04-08T15:13:45.174Z,8.10
2023-04-08T15:16:14.015Z,8.06
2023-04-08T15:18:43.049Z,8.01
2023-04-08T15:21:11.816Z,8.00
2023-04-08T15:23:42.490Z,7.97
2023-04-08T15:26:11.567Z,7.96
2023-04-08T15:28:41.711Z,7.95
2023-04-08T15:31:10.609Z,7.85
2023-04-08T15:33:42.118Z,7.76
2023-04-08T15:36:10.938Z,7.77
2023-04-08T15:38:40.102Z,7.77
2023-04-08T15:41:08.896Z,7.76
2023-04-08T15:43:37.625Z,7.76
2023-04-08T15:46:07.946Z,7.72
2023-04-08T15:48:37.777Z,7.68
2023-04-08T15:51:08.490Z,7.64
2023-04-08T15:53:37.260Z,7.61
2023-04-08T15:56:06.843Z,7.56
2023-04-08T15:58:35.635Z,7.54
2023-04-08T16:01:04.367Z,7.49
2023-04-08T16:03:34.763Z,7.47
2023-04-08T16:06:03.767Z,7.45
2023-04-08T16:08:33.740Z,7.43
2023-04-08T16:11:03.744Z,7.43
2023-04-08T16:13:34.302Z,7.35
2023-04-08T16:16:03.686Z,7.30
2023-04-08T16:18:33.825Z,7.26
2023-04-08T16:21:08.007Z,7.23
2023-04-08T16:23:38.023Z,7.19
2023-04-08T16:26:08.200Z,7.20
2023-04-08T16:28:39.884Z,7.19
2023-04-08T16:31:08.894Z,7.17
2023-04-08T16:33:39.122Z,7.17
2023-04-08T16:36:08.086Z,7.14
2023-04-08T16:38:37.125Z,7.12
2023-04-08T16:41:10.128Z,7.14
2023-04-08T16:43:39.168Z,7.10
2023-04-08T16:46:12.487Z,7.06
2023-04-08T16:48:44.066Z,7.03
2023-04-08T16:51:13.123Z,7.03
2023-04-08T16:53:42.890Z,7.04
2023-04-08T16:56:16.398Z,7.01
2023-04-08T16:58:45.408Z,6.97
2023-04-08T17:01:14.695Z,6.92
2023-04-08T17:03:45.024Z,6.93
2023-04-08T17:06:15.019Z,6.92
2023-04-08T17:08:44.459Z,6.90
2023-04-08T17:11:15.572Z,6.86
2023-04-08T17:13:45.792Z,6.75
2023-04-08T17:16:16.389Z,6.76
2023-04-08T17:18:47.101Z,6.71
2023-04-08T17:21:15.870Z,6.75
2023-04-08T17:23:44.541Z,6.79
2023-04-08T17:26:13.666Z,6.78
2023-04-08T17:28:43.620Z,6.75
2023-04-08T17:31:12.677Z,6.75
2023-04-08T17:33:41.416Z,6.74
2023-04-08T17:36:12.540Z,6.72
2023-04-08T17:38:41.804Z,6.74
2023-04-08T17:41:13.426Z,6.70
2023-04-08T17:43:45.829Z,6.71
2023-04-08T17:46:14.701Z,6.69
2023-04-08T17:48:43.555Z,6.66
2023-04-08T17:51:13.705Z,6.66
2023-04-08T17:53:43.381Z,6.63
2023-04-08T17:56:12.124Z,6.59
2023-04-08T17:58:40.981Z,6.58
2023-04-08T18:01:10.405Z,6.55
2023-04-08T18:03:39.347Z,6.52
2023-04-08T18:06:09.257Z,6.51
2023-04-08T18:08:39.776Z,6.50
2023-04-08T18:11:08.724Z,6.42
2023-04-08T18:13:37.493Z,6.42
2023-04-08T18:16:06.916Z,6.43
2023-04-08T18:18:38.704Z,6.35
2023-04-08T18:21:07.571Z,6.28
2023-04-08T18:23:37.685Z,6.28
2023-04-08T18:26:07.943Z,6.32
2023-04-08T18:28:36.763Z,6.27
2023-04-08T18:31:05.515Z,6.25
2023-04-08T18:33:34.382Z,6.21
2023-04-08T18:36:08.465Z,6.16
2023-04-08T18:38:37.652Z,6.18
2023-04-08T18:41:08.220Z,6.20
2023-04-08T18:43:37.392Z,6.23
2023-04-08T18:46:06.176Z,6.20
2023-04-08T18:48:35.112Z,6.20
2023-04-08T18:51:04.447Z,6.19
2023-04-08T18:53:33.332Z,6.18
2023-04-08T18:56:02.054Z,6.15
2023-04-08T18:58:33.873Z,6.16
2023-04-08T19:01:02.628Z,6.15
2023-04-08T19:03:31.451Z,6.15
2023-04-08T19:06:00.260Z,6.11
2023-04-08T19:08:29.050Z,6.08
2023-04-08T19:10:58.212Z,6.06
2023-04-08T19:13:27.173Z,6.05
2023-04-08T19:15:57.679Z,6.07
2023-04-08T19:18:26.493Z,6.06
2023-04-08T19:20:55.261Z,6.07
2023-04-08T19:23:24.052Z,6.06
2023-04-08T19:25:52.826Z,6.05
2023-04-08T19:28:21.868Z,6.06
2023-04-08T19:30:51.330Z,6.04
2023-04-08T19:33:21.575Z,6.04
2023-04-08T19:35:50.622Z,6.03
2023-04-08T19:38:19.428Z,6.01
2023-04-08T19:40:48.279Z,5.99
2023-04-08T19:43:17.750Z,5.99
2023-04-08T19:45:46.701Z,5.99
2023-04-08T19:48:15.926Z,6.00
2023-04-08T19:50:46.356Z,5.97
2023-04-08T19:53:15.159Z,5.79
2023-04-08T19:55:45.202Z,5.77
2023-04-08T19:58:14.103Z,5.95
2023-04-08T20:00:42.800Z,5.95
2023-04-08T20:03:11.818Z,5.92
2023-04-08T20:05:40.796Z,5.93
2023-04-08T20:08:11.355Z,5.92
2023-04-08T20:10:40.295Z,5.90
2023-04-08T20:13:09.049Z,5.85
2023-04-08T20:15:37.759Z,5.82
2023-04-08T20:18:06.482Z,5.81
2023-04-08T20:20:35.551Z,5.81
2023-04-08T20:23:04.231Z,5.84
2023-04-08T20:25:34.605Z,5.83
2023-04-08T20:28:03.486Z,5.80
2023-04-08T20:30:32.270Z,5.81
2023-04-08T20:33:01.252Z,5.81
2023-04-08T20:35:30.075Z,5.83
2023-04-08T20:37:58.929Z,5.79
2023-04-08T20:40:28.283Z,5.81
2023-04-08T20:42:58.551Z,5.74
2023-04-08T20:45:27.511Z,5.68
2023-04-08T20:47:56.674Z,5.63
2023-04-08T20:50:25.497Z,5.59
2023-04-08T20:52:54.300Z,5.60
2023-04-08T20:55:23.021Z,5.59
2023-04-08T20:57:51.794Z,5.60
2023-04-08T21:00:22.202Z,5.63
2023-04-08T21:02:51.322Z,5.67
2023-04-08T21:05:20.293Z,5.72
2023-04-08T21:07:49.213Z,5.71
2023-04-08T21:10:17.923Z,5.67
2023-04-08T21:12:46.695Z,5.65
2023-04-08T21:15:15.607Z,5.58
2023-04-08T21:17:45.862Z,5.53
2023-04-08T21:20:14.759Z,5.54
2023-04-08T21:22:43.489Z,5.61
2023-04-08T21:25:12.627Z,5.63
2023-04-08T21:27:41.357Z,5.60
2023-04-08T21:30:11.001Z,5.54
2023-04-08T21:32:39.991Z,5.47
2023-04-08T21:35:11.110Z,5.50
2023-04-08T21:37:39.893Z,5.56
2023-04-08T21:40:09.879Z,5.56
2023-04-08T21:42:39.035Z,5.62
2023-04-08T21:45:08.740Z,5.65
2023-04-08T21:47:37.249Z,5.61
2023-04-08T21:50:07.070Z,5.55
2023-04-08T21:52:37.951Z,5.53
2023-04-08T21:55:08.396Z,5.52
2023-04-08T21:57:37.209Z,5.50
2023-04-08T22:00:13.499Z,5.52
2023-04-08T22:02:45.485Z,5.54
2023-04-08T22:05:14.445Z,5.53
2023-04-08T22:07:44.632Z,5.51
2023-04-08T22:10:13.466Z,5.52
2023-04-08T22:12:42.494Z,5.55
2023-04-08T22:15:12.375Z,5.61
2023-04-08T22:17:41.107Z,5.61
2023-04-08T22:20:10.910Z,5.60
2023-04-08T22:22:39.763Z,5.61
2023-04-08T22:25:11.472Z,5.62
2023-04-08T22:27:40.429Z,5.59
2023-04-08T22:30:10.238Z,5.51
2023-04-08T22:32:39.219Z,5.47
2023-04-08T22:35:08.652Z,5.47
2023-04-08T22:37:37.429Z,5.49
2023-04-08T22:40:07.677Z,5.40
2023-04-08T22:42:37.984Z,5.42
2023-04-08T22:45:07.920Z,5.49
2023-04-08T22:47:37.875Z,5.40
2023-04-08T22:50:08.084Z,5.29
2023-04-08T22:52:36.924Z,5.24
2023-04-08T22:55:06.564Z,5.29
2023-04-08T22:57:35.193Z,5.37
2023-04-08T23:00:07.165Z,5.37
2023-04-08T23:02:36.434Z,5.37
2023-04-08T23:05:05.621Z,5.35
2023-04-08T23:07:34.553Z,5.32
2023-04-08T23:10:03.363Z,5.34
2023-04-08T23:12:32.181Z,5.36
2023-04-08T23:15:01.014Z,5.36
2023-04-08T23:17:31.304Z,5.33
2023-04-08T23:20:00.153Z,5.27
2023-04-08T23:22:28.898Z,5.23
2023-04-08T23:24:57.940Z,5.19
2023-04-08T23:27:26.632Z,5.23
2023-04-08T23:29:55.455Z,5.26
2023-04-08T23:32:24.105Z,5.27
2023-04-08T23:34:54.367Z,5.21
2023-04-08T23:37:25.060Z,5.25
2023-04-08T23:39:53.816Z,5.27
2023-04-08T23:42:27.732Z,5.26
2023-04-08T23:44:56.475Z,5.20
2023-04-08T23:47:25.244Z,5.25
2023-04-08T23:49:55.632Z,5.22
2023-04-08T23:52:24.565Z,5.22
2023-04-08T23:54:53.394Z,5.24
2023-04-08T23:57:22.539Z,5.26
2023-04-08T23:59:51.386Z,5.24
